createdAt,value
2022-10-12T00:00:27.336Z,12.73
2022-10-12T00:03:14.250Z,16.48
2022-10-12T00:05:41.868Z,16.58
2022-10-12T00:08:09.139Z,14.13
2022-10-12T00:10:43.993Z,15.10
2022-10-12T00:13:11.547Z,13.35
2022-10-12T00:15:41.925Z,13.98
2022-10-12T00:18:11.565Z,16.17
2022-10-12T00:20:38.698Z,16.05
2022-10-12T00:23:08.204Z,16.98
2022-10-12T00:25:41.694Z,18.38
2022-10-12T00:28:08.851Z,12.85
2022-10-12T00:30:40.311Z,11.10
2022-10-12T00:33:07.246Z,11.45
2022-10-12T00:35:34.378Z,11.73
2022-10-12T00:38:03.649Z,14.65
2022-10-12T00:40:30.655Z,13.82
2022-10-12T00:42:57.752Z,12.98
2022-10-12T00:45:27.414Z,13.05
2022-10-12T00:48:00.352Z,12.57
2022-10-12T00:50:31.456Z,15.20
2022-10-12T00:53:14.284Z,14.93
2022-10-12T00:55:49.741Z,12.20
2022-10-12T00:58:16.992Z,14.18
2022-10-12T01:00:44.683Z,12.27
2022-10-12T01:03:15.376Z,14.70
2022-10-12T01:05:42.857Z,14.43
2022-10-12T01:08:09.769Z,17.80
2022-10-12T01:10:36.943Z,12.68
2022-10-12T01:13:04.208Z,12.68
2022-10-12T01:15:37.006Z,14.43
2022-10-12T01:18:18.009Z,11.57
2022-10-12T01:20:45.057Z,11.30
2022-10-12T01:23:21.541Z,16.63
2022-10-12T01:26:10.438Z,15.10
2022-10-12T01:28:55.779Z,15.68
2022-10-12T01:31:32.949Z,12.15
2022-10-12T01:34:13.306Z,14.73
2022-10-12T01:36:45.255Z,16.92
2022-10-12T01:39:20.446Z,19.45
2022-10-12T01:41:53.562Z,14.00
2022-10-12T01:44:25.965Z,14.07
2022-10-12T01:46:55.452Z,18.83
2022-10-12T01:49:26.979Z,12.75
2022-10-12T01:52:21.204Z,15.90
2022-10-12T01:55:11.053Z,15.40
2022-10-12T01:58:10.627Z,11.88
2022-10-12T02:00:55.502Z,14.32
2022-10-12T02:03:37.697Z,13.70
2022-10-12T02:06:09.815Z,13.07
2022-10-12T02:08:45.260Z,18.73
2022-10-12T02:11:15.032Z,16.15
2022-10-12T02:13:50.961Z,13.52
2022-10-12T02:18:53.055Z,14.40
2022-10-12T02:21:23.200Z,18.80
2022-10-12T02:23:53.456Z,13.20
2022-10-12T02:26:21.808Z,10.68
2022-10-12T02:28:50.500Z,14.27
2022-10-12T02:31:23.764Z,11.95
2022-10-12T02:33:55.120Z,15.95
2022-10-12T02:36:46.531Z,13.57
2022-10-12T02:39:20.053Z,14.52
2022-10-12T02:41:51.039Z,14.88
2022-10-12T02:44:24.075Z,14.02
2022-10-12T02:46:53.902Z,16.80
2022-10-12T02:49:27.043Z,14.63
2022-10-12T02:51:55.658Z,19.05
2022-10-12T02:54:25.408Z,12.73
2022-10-12T02:56:52.646Z,20.10
2022-10-12T02:59:20.145Z,15.45
2022-10-12T03:01:47.165Z,14.32
2022-10-12T03:04:14.509Z,11.68
2022-10-12T03:06:42.695Z,15.55
2022-10-12T03:09:10.231Z,15.27
2022-10-12T03:11:38.151Z,18.73
2022-10-12T03:14:07.565Z,12.35
2022-10-12T03:16:36.730Z,13.23
2022-10-12T03:19:03.925Z,14.23
2022-10-12T03:21:30.785Z,14.60
2022-10-12T03:23:57.729Z,14.05
2022-10-12T03:26:27.058Z,13.13
2022-10-12T03:28:54.015Z,14.60
2022-10-12T03:31:20.963Z,16.80
2022-10-12T03:33:48.073Z,12.23
2022-10-12T03:36:17.190Z,14.00
2022-10-12T03:38:44.381Z,13.18
2022-10-12T03:41:11.295Z,16.05
2022-10-12T03:43:38.396Z,19.13
2022-10-12T03:46:05.457Z,14.15
2022-10-12T03:48:32.603Z,14.35
2022-10-12T03:50:59.565Z,14.07
2022-10-12T03:53:29.111Z,16.40
2022-10-12T03:55:59.178Z,16.77
2022-10-12T03:58:28.342Z,14.23
2022-10-12T04:00:55.811Z,24.33
2022-10-12T04:03:22.891Z,18.83
2022-10-12T04:05:58.112Z,19.17
2022-10-12T04:08:26.943Z,19.58
2022-10-12T04:10:54.361Z,18.15
2022-10-12T04:13:21.437Z,12.98
2022-10-12T04:15:48.565Z,16.27
2022-10-12T04:18:15.572Z,19.80
2022-10-12T04:20:43.109Z,12.02
2022-10-12T04:23:10.370Z,15.75
2022-10-12T04:25:37.299Z,15.23
2022-10-12T04:28:04.178Z,12.13
2022-10-12T04:30:33.139Z,15.88
2022-10-12T04:33:03.099Z,16.00
2022-10-12T04:35:32.875Z,15.25
2022-10-12T04:38:02.480Z,16.27
2022-10-12T04:40:29.851Z,17.42
2022-10-12T04:42:56.728Z,15.82
2022-10-12T04:45:23.892Z,18.52
2022-10-12T04:47:55.613Z,14.30
2022-10-12T04:50:27.467Z,17.65
2022-10-12T04:52:56.781Z,14.32
2022-10-12T04:55:23.992Z,13.95
2022-10-12T04:57:50.906Z,16.30
2022-10-12T05:00:18.198Z,18.42
2022-10-12T05:02:45.135Z,15.38
2022-10-12T05:05:12.067Z,14.88
2022-10-12T05:07:39.457Z,15.43
2022-10-12T05:10:07.151Z,18.35
2022-10-12T05:12:34.250Z,15.60
2022-10-12T05:15:01.234Z,13.90
2022-10-12T05:17:28.443Z,20.85
2022-10-12T05:19:55.390Z,16.15
2022-10-12T05:22:22.553Z,16.63
2022-10-12T05:24:53.595Z,17.25
2022-10-12T05:27:21.214Z,15.90
2022-10-12T05:29:48.209Z,17.02
2022-10-12T05:32:17.448Z,21.60
2022-10-12T05:34:44.779Z,17.17
2022-10-12T05:37:12.137Z,16.95
2022-10-12T05:39:39.519Z,19.15
2022-10-12T05:42:06.708Z,16.27
2022-10-12T05:44:33.812Z,17.15
2022-10-12T05:47:00.984Z,21.20
2022-10-12T05:49:28.002Z,17.52
2022-10-12T05:51:57.592Z,17.92
2022-10-12T05:54:24.806Z,18.98
2022-10-12T05:56:54.499Z,17.60
2022-10-12T05:59:23.978Z,16.45
2022-10-12T06:01:53.627Z,18.60
2022-10-12T06:04:20.910Z,17.25
2022-10-12T06:06:48.048Z,18.02
2022-10-12T06:09:15.749Z,25.10
2022-10-12T06:12:50.118Z,16.58
2022-10-12T06:15:17.142Z,14.82
2022-10-12T06:17:44.240Z,21.55
2022-10-12T06:20:11.375Z,18.30
2022-10-12T06:22:38.794Z,17.63
2022-10-12T06:25:08.564Z,17.77
2022-10-12T06:27:35.894Z,14.98
2022-10-12T06:30:04.109Z,14.38
2022-10-12T06:32:31.144Z,15.38
2022-10-12T06:34:58.196Z,14.77
2022-10-12T06:37:48.497Z,11.38
2022-10-12T06:40:13.284Z,15.43
2022-10-12T06:42:40.545Z,19.58
2022-10-12T06:45:08.565Z,14.20
2022-10-12T06:47:35.452Z,14.88
2022-10-12T06:50:02.790Z,12.00
2022-10-12T06:52:29.923Z,13.50
2022-10-12T06:54:57.038Z,9.70
2022-10-12T06:57:31.013Z,15.60
2022-10-12T06:59:58.193Z,12.38
2022-10-12T07:02:25.250Z,10.38
2022-10-12T07:04:55.271Z,12.55
2022-10-12T07:07:22.431Z,11.65
2022-10-12T07:09:49.676Z,10.30
2022-10-12T07:12:16.643Z,14.00
2022-10-12T07:14:43.941Z,18.13
2022-10-12T07:17:10.851Z,11.82
2022-10-12T07:19:40.689Z,11.38
2022-10-12T07:22:07.940Z,9.77
2022-10-12T07:24:37.923Z,11.82
2022-10-12T07:27:09.966Z,15.10
2022-10-12T07:29:38.297Z,14.13
2022-10-12T07:32:07.471Z,9.63
2022-10-12T07:34:35.077Z,20.67
2022-10-12T07:37:04.338Z,14.68
2022-10-12T07:39:31.510Z,14.13
2022-10-12T07:41:58.481Z,11.00
2022-10-12T07:44:28.405Z,16.27
2022-10-12T07:46:55.545Z,16.90
2022-10-12T07:49:22.699Z,10.75
2022-10-12T07:51:49.881Z,10.73
2022-10-12T07:54:20.943Z,10.80
2022-10-12T07:56:50.146Z,10.18
2022-10-12T07:59:17.168Z,14.60
2022-10-12T08:01:44.339Z,12.35
2022-10-12T08:04:11.479Z,8.88
2022-10-12T08:06:43.945Z,7.63
2022-10-12T08:09:13.235Z,10.00
2022-10-12T08:11:41.134Z,9.20
2022-10-12T08:14:14.883Z,10.95
2022-10-12T08:16:43.947Z,12.88
2022-10-12T08:19:11.485Z,10.75
2022-10-12T08:21:38.726Z,10.50
2022-10-12T08:24:05.931Z,16.45
2022-10-12T08:26:33.395Z,11.52
2022-10-12T08:29:02.386Z,9.38
2022-10-12T08:31:29.582Z,13.15
2022-10-12T08:33:59.956Z,19.23
2022-10-12T08:36:27.854Z,9.38
2022-10-12T08:38:55.611Z,12.18
2022-10-12T08:41:47.934Z,8.80
2022-10-12T08:44:27.341Z,8.52
2022-10-12T08:47:11.585Z,10.23
2022-10-12T08:49:40.392Z,11.55
2022-10-12T08:52:21.057Z,8.00
2022-10-12T08:54:48.016Z,9.88
2022-10-12T08:57:23.271Z,10.85
2022-10-12T08:59:51.142Z,11.45
2022-10-12T09:02:38.457Z,10.65
2022-10-12T09:05:19.139Z,10.35
2022-10-12T09:07:55.499Z,13.40
2022-10-12T09:10:40.140Z,13.73
2022-10-12T09:13:31.472Z,12.65
2022-10-12T09:16:03.381Z,11.75
2022-10-12T09:18:43.141Z,12.77
2022-10-12T09:21:16.980Z,9.27
2022-10-12T09:23:44.539Z,11.85
2022-10-12T09:26:17.901Z,9.25
2022-10-12T09:28:49.146Z,10.30
2022-10-12T09:31:31.053Z,13.20
2022-10-12T09:34:00.302Z,12.60
2022-10-12T09:36:31.535Z,10.05
2022-10-12T09:39:04.274Z,16.20
2022-10-12T09:41:41.991Z,14.35
2022-10-12T09:44:35.138Z,9.50
2022-10-12T09:47:27.498Z,11.10
2022-10-12T09:49:58.934Z,10.85
2022-10-12T09:52:44.866Z,11.10
2022-10-12T09:55:15.676Z,11.38
2022-10-12T09:57:52.039Z,9.77
2022-10-12T10:00:31.465Z,12.45
2022-10-12T10:02:59.525Z,13.52
2022-10-12T10:05:27.940Z,10.05
2022-10-12T10:08:14.718Z,10.20
2022-10-12T10:11:14.514Z,9.95
2022-10-12T10:13:48.911Z,8.30
2022-10-12T10:16:16.895Z,8.85
2022-10-12T10:18:54.888Z,8.48
2022-10-12T10:21:33.705Z,10.35
2022-10-12T10:24:03.340Z,14.75
2022-10-12T10:27:00.213Z,16.13
2022-10-12T10:29:30.401Z,8.13
2022-10-12T10:32:26.717Z,8.02
2022-10-12T10:35:12.923Z,12.40
2022-10-12T10:37:46.853Z,10.73
2022-10-12T10:40:27.470Z,11.15
2022-10-12T10:43:06.312Z,18.80
2022-10-12T10:45:34.881Z,14.50
2022-10-12T10:48:18.573Z,12.02
2022-10-12T10:50:56.569Z,9.38
2022-10-12T10:53:28.927Z,8.85
2022-10-12T10:56:23.202Z,7.50
2022-10-12T10:58:59.255Z,6.85
2022-10-12T11:01:52.489Z,8.63
2022-10-12T11:04:39.867Z,9.77
2022-10-12T11:07:21.677Z,12.63
2022-10-12T11:09:54.952Z,9.80
2022-10-12T11:12:31.222Z,11.32
2022-10-12T11:15:08.370Z,9.73
2022-10-12T11:17:42.595Z,7.55
2022-10-12T11:20:32.050Z,7.45
2022-10-12T11:23:17.545Z,6.25
2022-10-12T11:26:15.264Z,10.52
2022-10-12T11:28:43.113Z,8.63
2022-10-12T11:31:31.561Z,8.93
2022-10-12T11:34:03.336Z,10.13
2022-10-12T11:36:33.629Z,11.05
2022-10-12T11:39:07.985Z,11.63
2022-10-12T11:44:47.312Z,11.40
2022-10-12T11:47:36.555Z,7.03
2022-10-12T11:50:15.337Z,7.85
2022-10-12T11:52:47.717Z,11.18
2022-10-12T11:55:32.466Z,8.38
2022-10-12T11:58:13.498Z,12.43
2022-10-12T12:01:17.066Z,11.77
2022-10-12T12:03:45.469Z,9.20
2022-10-12T12:06:31.102Z,11.80
2022-10-12T12:09:17.882Z,11.30
2022-10-12T12:11:45.007Z,9.23
2022-10-12T12:14:21.406Z,7.38
2022-10-12T12:16:51.782Z,10.02
2022-10-12T12:19:42.371Z,12.50
2022-10-12T12:22:19.214Z,9.27
2022-10-12T12:25:15.182Z,13.25
2022-10-12T12:27:46.741Z,7.65
2022-10-12T12:30:19.429Z,8.15
2022-10-12T12:32:50.441Z,9.98
2022-10-12T12:35:50.883Z,10.65
2022-10-12T12:38:24.689Z,7.45
2022-10-12T12:40:59.017Z,9.82
2022-10-12T12:43:29.137Z,12.63
2022-10-12T12:45:57.217Z,12.18
2022-10-12T12:48:42.604Z,10.02
2022-10-12T12:51:13.747Z,6.97
2022-10-12T12:53:47.898Z,10.30
2022-10-12T12:56:43.135Z,11.63
2022-10-12T12:59:50.159Z,11.98
2022-10-12T13:02:20.467Z,5.15
2022-10-12T13:05:09.011Z,10.75
2022-10-12T13:08:04.610Z,6.38
2022-10-12T13:10:58.076Z,8.00
2022-10-12T13:13:38.096Z,13.20
2022-10-12T13:16:11.827Z,4.75
2022-10-12T13:19:03.041Z,11.07
2022-10-12T13:21:38.010Z,8.32
2022-10-12T13:24:13.921Z,6.15
2022-10-12T13:26:43.293Z,8.50
2022-10-12T13:29:20.038Z,6.90
2022-10-12T13:31:53.976Z,8.77
2022-10-12T13:34:38.738Z,9.50
2022-10-12T13:37:12.936Z,8.10
2022-10-12T13:39:47.210Z,17.02
2022-10-12T13:42:18.445Z,6.90
2022-10-12T13:44:47.473Z,13.18
2022-10-12T13:47:30.109Z,10.30
2022-10-12T13:49:57.818Z,7.80
2022-10-12T13:52:34.161Z,8.05
2022-10-12T13:55:14.551Z,7.57
2022-10-12T13:57:48.494Z,10.43
2022-10-12T14:00:21.183Z,7.00
2022-10-12T14:03:00.263Z,8.60
2022-10-12T14:05:30.503Z,13.07
2022-10-12T14:08:02.500Z,8.80
2022-10-12T14:10:33.073Z,8.18
2022-10-12T14:13:02.130Z,10.15
2022-10-12T14:15:33.929Z,12.20
2022-10-12T14:18:01.075Z,13.88
2022-10-12T14:20:38.908Z,11.05
2022-10-12T14:23:22.217Z,14.48
2022-10-12T14:25:55.411Z,10.15
2022-10-12T14:28:35.574Z,11.32
2022-10-12T14:31:07.435Z,10.00
2022-10-12T14:33:34.549Z,7.82
2022-10-12T14:36:20.529Z,13.13
2022-10-12T14:41:50.172Z,10.60
2022-10-12T14:44:21.944Z,11.57
2022-10-12T14:47:05.768Z,16.38
2022-10-12T14:49:38.875Z,10.05
2022-10-12T14:52:07.425Z,11.73
2022-10-12T14:54:35.118Z,15.77
2022-10-12T14:57:15.122Z,9.88
2022-10-12T14:59:44.910Z,12.20
2022-10-12T15:02:20.912Z,11.93
2022-10-12T15:04:48.201Z,13.10
2022-10-12T15:07:22.728Z,17.40
2022-10-12T15:09:50.357Z,13.25
2022-10-12T15:12:21.315Z,14.20
2022-10-12T15:14:52.276Z,10.32
2022-10-12T15:17:20.234Z,10.77
2022-10-12T15:19:49.314Z,16.23
2022-10-12T15:22:26.459Z,11.65
2022-10-12T15:24:54.849Z,18.30
2022-10-12T15:27:22.801Z,11.20
2022-10-12T15:29:50.061Z,11.70
2022-10-12T15:32:19.059Z,18.83
2022-10-12T15:34:46.104Z,11.63
2022-10-12T15:37:13.535Z,18.88
2022-10-12T15:39:41.781Z,16.98
2022-10-12T15:42:12.291Z,20.65
2022-10-12T15:44:43.395Z,17.80
2022-10-12T15:47:11.459Z,15.90
2022-10-12T15:49:38.992Z,14.77
2022-10-12T15:52:11.370Z,16.90
2022-10-12T15:54:42.020Z,14.15
2022-10-12T15:57:12.393Z,22.02
2022-10-12T15:59:39.797Z,14.38
2022-10-12T16:02:12.420Z,14.85
2022-10-12T16:04:39.908Z,12.15
2022-10-12T16:07:06.909Z,11.93
2022-10-12T16:09:34.064Z,11.13
2022-10-12T16:12:03.443Z,20.10
2022-10-12T16:14:30.608Z,16.20
2022-10-12T16:17:00.055Z,18.42
2022-10-12T16:19:28.079Z,16.05
2022-10-12T16:21:55.060Z,12.93
2022-10-12T16:24:22.068Z,17.38
2022-10-12T16:26:50.028Z,17.13
2022-10-12T16:29:17.195Z,13.70
2022-10-12T16:31:44.338Z,17.17
2022-10-12T16:34:11.328Z,16.67
2022-10-12T16:36:40.967Z,17.73
2022-10-12T16:39:07.934Z,14.55
2022-10-12T16:41:35.235Z,12.60
2022-10-12T16:44:03.445Z,19.48
2022-10-12T16:46:31.285Z,15.25
2022-10-12T16:48:58.277Z,12.30
2022-10-12T16:51:25.454Z,18.55
2022-10-12T16:53:52.350Z,17.00
2022-10-12T16:56:24.468Z,23.85
2022-10-12T16:58:53.720Z,25.60
2022-10-12T17:01:20.962Z,28.35
2022-10-12T17:03:56.254Z,24.98
2022-10-12T17:06:23.366Z,26.48
2022-10-12T17:08:50.249Z,22.98
2022-10-12T17:11:17.444Z,24.50
2022-10-12T17:13:48.928Z,24.42
2022-10-12T17:16:36.881Z,25.77
2022-10-12T17:19:08.446Z,34.42
2022-10-12T17:21:37.744Z,28.17
2022-10-12T17:24:05.797Z,28.42
2022-10-12T17:26:37.252Z,22.90
2022-10-12T17:29:14.131Z,22.75
2022-10-12T17:31:48.015Z,25.90
2022-10-12T17:34:18.738Z,22.33
2022-10-12T17:36:47.258Z,22.08
2022-10-12T17:39:15.872Z,26.13
2022-10-12T17:41:43.187Z,17.95
2022-10-12T17:44:11.827Z,21.55
2022-10-12T17:46:40.509Z,16.17
2022-10-12T17:49:11.315Z,18.08
2022-10-12T17:51:39.154Z,18.90
2022-10-12T17:54:06.739Z,19.27
2022-10-12T17:56:34.689Z,19.00
2022-10-12T17:59:05.587Z,17.05
2022-10-12T18:01:35.690Z,18.40
2022-10-12T18:04:04.910Z,23.55
2022-10-12T18:06:34.451Z,17.55
2022-10-12T18:09:04.099Z,15.52
2022-10-12T18:11:32.635Z,19.50
2022-10-12T18:14:00.628Z,19.52
2022-10-12T18:16:33.869Z,21.40
2022-10-12T18:19:03.558Z,22.33
2022-10-12T18:21:34.038Z,18.48
2022-10-12T18:24:07.034Z,28.25
2022-10-12T18:26:39.173Z,20.63
2022-10-12T18:29:09.423Z,23.38
2022-10-12T18:31:37.510Z,26.65
2022-10-12T18:34:07.046Z,28.08
2022-10-12T18:36:35.002Z,25.95
2022-10-12T18:39:05.044Z,18.48
2022-10-12T18:41:33.667Z,17.48
2022-10-12T18:44:02.884Z,20.45
2022-10-12T18:46:33.437Z,20.95
2022-10-12T18:49:05.168Z,20.48
2022-10-12T18:51:40.493Z,20.05
2022-10-12T18:56:37.667Z,18.90
2022-10-12T18:59:07.389Z,17.70
2022-10-12T19:01:36.191Z,18.65
2022-10-12T19:04:07.245Z,20.48
2022-10-12T19:06:38.577Z,26.55
2022-10-12T19:09:07.322Z,25.17
2022-10-12T19:11:37.774Z,17.58
2022-10-12T19:14:09.308Z,18.08
2022-10-12T19:16:37.169Z,22.60
2022-10-12T19:19:14.894Z,23.65
2022-10-12T19:21:48.879Z,23.83
2022-10-12T19:24:16.910Z,18.90
2022-10-12T19:26:48.732Z,22.30
2022-10-12T19:29:17.096Z,27.77
2022-10-12T19:31:48.036Z,23.73
2022-10-12T19:34:18.366Z,30.23
2022-10-12T19:36:46.467Z,32.28
2022-10-12T19:39:23.638Z,32.53
2022-10-12T19:41:53.312Z,31.67
2022-10-12T19:44:21.173Z,28.02
2022-10-12T19:46:51.518Z,25.95
2022-10-12T19:49:22.808Z,28.73
2022-10-12T19:51:52.406Z,24.95
2022-10-12T19:54:20.541Z,22.67
2022-10-12T19:56:49.071Z,20.92
2022-10-12T19:59:17.312Z,24.67
2022-10-12T20:01:48.309Z,23.85
2022-10-12T20:04:16.852Z,24.23
2022-10-12T20:06:46.678Z,21.58
2022-10-12T20:09:17.103Z,22.63
2022-10-12T20:11:47.635Z,20.20
2022-10-12T20:14:17.746Z,25.17
2022-10-12T20:16:45.173Z,22.58
2022-10-12T20:19:13.738Z,24.77
2022-10-12T20:21:41.277Z,25.92
2022-10-12T20:24:09.807Z,24.27
2022-10-12T20:26:37.617Z,22.58
2022-10-12T20:29:05.059Z,28.85
2022-10-12T20:31:32.043Z,20.52
2022-10-12T20:33:59.770Z,22.77
2022-10-12T20:36:31.377Z,25.75
2022-10-12T20:38:59.990Z,21.90
2022-10-12T20:41:30.881Z,24.60
2022-10-12T20:43:59.917Z,25.58
2022-10-12T20:46:27.754Z,24.00
2022-10-12T20:49:00.944Z,21.05
2022-10-12T20:51:31.332Z,23.33
2022-10-12T20:54:00.756Z,26.60
2022-10-12T20:56:32.851Z,23.27
2022-10-12T20:59:00.750Z,29.15
2022-10-12T21:01:28.607Z,27.38
2022-10-12T21:03:58.574Z,24.27
2022-10-12T21:06:26.011Z,19.80
2022-10-12T21:08:54.645Z,23.67
2022-10-12T21:11:22.400Z,22.38
2022-10-12T21:13:49.959Z,23.15
2022-10-12T21:16:16.958Z,25.00
2022-10-12T21:18:43.901Z,24.25
2022-10-12T21:21:16.243Z,21.30
2022-10-12T21:23:45.998Z,23.95
2022-10-12T21:26:15.879Z,24.90
2022-10-12T21:28:43.563Z,23.55
2022-10-12T21:31:11.159Z,21.92
2022-10-12T21:33:39.276Z,22.17
2022-10-12T21:36:11.240Z,25.02
2022-10-12T21:38:39.626Z,21.70
2022-10-12T21:41:10.711Z,25.92
2022-10-12T21:43:39.182Z,24.17
2022-10-12T21:46:11.797Z,29.42
2022-10-12T21:48:39.504Z,24.27
2022-10-12T21:51:07.224Z,33.08
2022-10-12T21:53:35.757Z,25.50
2022-10-12T21:56:13.212Z,22.45
2022-10-12T21:58:41.031Z,24.65
2022-10-12T22:01:11.208Z,26.25
2022-10-12T22:03:38.147Z,20.80
2022-10-12T22:06:05.151Z,26.52
2022-10-12T22:08:32.920Z,24.63
2022-10-12T22:11:08.088Z,27.10
2022-10-12T22:13:35.889Z,20.15
2022-10-12T22:16:09.024Z,28.80
2022-10-12T22:18:36.385Z,16.85
2022-10-12T22:21:09.454Z,22.30
2022-10-12T22:23:36.685Z,30.73
2022-10-12T22:26:10.849Z,23.90
2022-10-12T22:28:37.892Z,18.83
2022-10-12T22:31:07.050Z,25.38
2022-10-12T22:33:35.442Z,19.08
2022-10-12T22:36:03.621Z,21.02
2022-10-12T22:38:34.127Z,23.33
2022-10-12T22:41:08.665Z,21.75
2022-10-12T22:43:42.699Z,22.35
2022-10-12T22:46:10.225Z,22.02
2022-10-12T22:48:37.913Z,24.10
2022-10-12T22:51:06.706Z,28.10
2022-10-12T22:53:34.795Z,22.67
2022-10-12T22:56:07.974Z,22.23
2022-10-12T22:58:35.656Z,28.75
2022-10-12T23:01:02.591Z,24.13
2022-10-12T23:03:32.431Z,23.70
2022-10-12T23:06:04.173Z,27.45
2022-10-12T23:08:31.574Z,22.63
2022-10-12T23:11:14.105Z,23.83
2022-10-12T23:13:43.923Z,29.27
2022-10-12T23:16:16.546Z,22.00
2022-10-12T23:18:43.698Z,23.20
2022-10-12T23:21:17.709Z,21.70
2022-10-12T23:23:45.838Z,25.23
2022-10-12T23:26:18.777Z,24.25
2022-10-12T23:28:47.092Z,25.58
2022-10-12T23:31:22.666Z,25.63
2022-10-12T23:36:26.015Z,26.70
2022-10-12T23:38:55.932Z,23.45
2022-10-12T23:41:22.980Z,23.83
2022-10-12T23:43:49.923Z,26.83
2022-10-12T23:46:17.181Z,23.40
2022-10-12T23:48:44.136Z,22.27
2022-10-12T23:51:11.104Z,20.88
2022-10-12T23:53:39.076Z,21.52
2022-10-12T23:56:07.132Z,26.08
2022-10-12T23:58:34.527Z,22.27
